sensor_id;sensor_type;location;lat;lon;timestamp;pressure;altitude;pressure_sealevel;temperature;humidity
55424;BME280;41294;42.666;23.350;2023-02-02T00:01:45;95093.19;;;6.52;53.76
55424;BME280;41294;42.666;23.350;2023-02-02T00:04:35;95093.25;;;6.48;54.22
55424;BME280;41294;42.666;23.350;2023-02-02T00:07:00;95092.66;;;6.41;54.45
55424;BME280;41294;42.666;23.350;2023-02-02T00:09:28;95090.38;;;6.27;54.74
55424;BME280;41294;42.666;23.350;2023-02-02T00:11:54;95093.63;;;6.31;54.78
55424;BME280;41294;42.666;23.350;2023-02-02T00:14:20;95083.84;;;6.35;54.85
55424;BME280;41294;42.666;23.350;2023-02-02T00:16:55;95084.09;;;6.40;54.85
55424;BME280;41294;42.666;23.350;2023-02-02T00:19:27;95083.31;;;6.24;54.70
55424;BME280;41294;42.666;23.350;2023-02-02T00:21:53;95084.56;;;6.35;54.40
55424;BME280;41294;42.666;23.350;2023-02-02T00:24:19;95078.34;;;6.29;55.05
55424;BME280;41294;42.666;23.350;2023-02-02T00:26:47;95082.84;;;6.29;54.74
55424;BME280;41294;42.666;23.350;2023-02-02T00:29:18;95089.19;;;6.28;55.08
55424;BME280;41294;42.666;23.350;2023-02-02T00:31:44;95085.94;;;6.24;55.44
55424;BME280;41294;42.666;23.350;2023-02-02T00:34:13;95093.94;;;6.17;54.80
55424;BME280;41294;42.666;23.350;2023-02-02T00:36:40;95094.59;;;6.21;55.37
55424;BME280;41294;42.666;23.350;2023-02-02T00:39:05;95100.94;;;6.20;55.15
55424;BME280;41294;42.666;23.350;2023-02-02T00:41:31;95098.25;;;6.23;55.46
55424;BME280;41294;42.666;23.350;2023-02-02T00:43:56;95101.88;;;6.29;55.39
55424;BME280;41294;42.666;23.350;2023-02-02T00:46:41;95120.72;;;6.21;55.26
55424;BME280;41294;42.666;23.350;2023-02-02T00:49:07;95104.09;;;6.31;55.16
55424;BME280;41294;42.666;23.350;2023-02-02T00:51:34;95099.72;;;6.24;55.72
55424;BME280;41294;42.666;23.350;2023-02-02T00:53:59;95095.34;;;6.21;55.79
55424;BME280;41294;42.666;23.350;2023-02-02T00:56:25;95099.00;;;6.24;56.68
55424;BME280;41294;42.666;23.350;2023-02-02T00:58:50;95100.03;;;6.10;57.11
55424;BME280;41294;42.666;23.350;2023-02-02T01:01:20;95098.56;;;6.09;58.13
55424;BME280;41294;42.666;23.350;2023-02-02T01:03:47;95087.75;;;6.07;58.37
55424;BME280;41294;42.666;23.350;2023-02-02T01:06:13;95095.88;;;6.13;59.17
55424;BME280;41294;42.666;23.350;2023-02-02T01:08:38;95079.13;;;6.10;59.25
55424;BME280;41294;42.666;23.350;2023-02-02T01:11:04;95085.41;;;6.13;59.39
55424;BME280;41294;42.666;23.350;2023-02-02T01:13:30;95084.00;;;6.08;60.44
55424;BME280;41294;42.666;23.350;2023-02-02T01:15:57;95084.50;;;6.03;60.80
55424;BME280;41294;42.666;23.350;2023-02-02T01:18:23;95076.75;;;6.00;60.85
55424;BME280;41294;42.666;23.350;2023-02-02T01:21:00;95070.44;;;5.97;61.35
55424;BME280;41294;42.666;23.350;2023-02-02T01:23:26;95074.41;;;5.86;62.31
55424;BME280;41294;42.666;23.350;2023-02-02T01:25:53;95069.91;;;5.86;62.08
55424;BME280;41294;42.666;23.350;2023-02-02T01:28:18;95078.03;;;5.92;62.31
55424;BME280;41294;42.666;23.350;2023-02-02T01:30:44;95064.47;;;5.97;62.24
55424;BME280;41294;42.666;23.350;2023-02-02T01:33:09;95068.16;;;5.99;62.05
55424;BME280;41294;42.666;23.350;2023-02-02T01:35:34;95062.00;;;5.90;62.07
55424;BME280;41294;42.666;23.350;2023-02-02T01:38:00;95062.34;;;5.92;62.87
55424;BME280;41294;42.666;23.350;2023-02-02T01:40:25;95070.03;;;5.79;62.46
55424;BME280;41294;42.666;23.350;2023-02-02T01:42:50;95051.50;;;5.74;62.71
55424;BME280;41294;42.666;23.350;2023-02-02T01:45:20;95053.09;;;5.68;62.97
55424;BME280;41294;42.666;23.350;2023-02-02T01:47:51;95053.94;;;5.62;63.05
55424;BME280;41294;42.666;23.350;2023-02-02T01:50:21;95053.59;;;5.40;64.17
55424;BME280;41294;42.666;23.350;2023-02-02T01:52:48;95052.25;;;5.32;64.43
55424;BME280;41294;42.666;23.350;2023-02-02T01:55:17;95042.56;;;5.33;64.69
55424;BME280;41294;42.666;23.350;2023-02-02T02:00:18;95048.84;;;5.16;65.32
55424;BME280;41294;42.666;23.350;2023-02-02T02:02:50;95039.78;;;5.01;66.21
55424;BME280;41294;42.666;23.350;2023-02-02T02:05:26;95031.16;;;5.04;66.68
55424;BME280;41294;42.666;23.350;2023-02-02T02:07:56;95037.75;;;4.89;67.64
55424;BME280;41294;42.666;23.350;2023-02-02T02:10:24;95042.00;;;4.80;67.26
55424;BME280;41294;42.666;23.350;2023-02-02T02:12:50;95045.13;;;4.94;66.57
55424;BME280;41294;42.666;23.350;2023-02-02T02:15:16;95046.66;;;4.91;66.42
55424;BME280;41294;42.666;23.350;2023-02-02T02:18:39;95051.00;;;4.75;67.09
55424;BME280;41294;42.666;23.350;2023-02-02T02:21:14;95046.31;;;4.67;67.97
55424;BME280;41294;42.666;23.350;2023-02-02T02:32:57;95045.97;;;4.65;68.19
55424;BME280;41294;42.666;23.350;2023-02-02T02:36:01;95050.50;;;4.61;67.95
55424;BME280;41294;42.666;23.350;2023-02-02T02:38:47;95040.41;;;4.63;68.09
55424;BME280;41294;42.666;23.350;2023-02-02T02:41:27;95041.00;;;4.74;67.52
55424;BME280;41294;42.666;23.350;2023-02-02T02:44:00;95041.78;;;4.71;67.97
55424;BME280;41294;42.666;23.350;2023-02-02T02:46:26;95041.00;;;4.74;67.67
55424;BME280;41294;42.666;23.350;2023-02-02T02:48:52;95048.13;;;4.70;67.77
55424;BME280;41294;42.666;23.350;2023-02-02T02:54:09;95031.81;;;4.66;67.00
55424;BME280;41294;42.666;23.350;2023-02-02T02:56:55;95035.91;;;4.67;68.15
55424;BME280;41294;42.666;23.350;2023-02-02T03:05:25;95047.44;;;4.66;68.32
55424;BME280;41294;42.666;23.350;2023-02-02T03:08:13;95036.44;;;4.55;68.28
55424;BME280;41294;42.666;23.350;2023-02-02T03:10:43;95036.50;;;4.51;68.05
55424;BME280;41294;42.666;23.350;2023-02-02T03:13:12;95040.06;;;4.61;67.61
55424;BME280;41294;42.666;23.350;2023-02-02T03:15:44;95038.69;;;4.56;67.79
55424;BME280;41294;42.666;23.350;2023-02-02T03:18:14;95043.78;;;4.63;67.55
55424;BME280;41294;42.666;23.350;2023-02-02T03:20:42;95041.53;;;4.62;67.12
55424;BME280;41294;42.666;23.350;2023-02-02T03:23:09;95035.59;;;4.61;67.25
55424;BME280;41294;42.666;23.350;2023-02-02T03:25:34;95030.69;;;4.67;66.81
55424;BME280;41294;42.666;23.350;2023-02-02T03:28:00;95033.41;;;4.60;67.07
55424;BME280;41294;42.666;23.350;2023-02-02T03:30:26;95035.53;;;4.65;67.53
55424;BME280;41294;42.666;23.350;2023-02-02T03:32:51;95035.09;;;4.70;66.69
55424;BME280;41294;42.666;23.350;2023-02-02T03:35:17;95040.53;;;4.79;66.26
55424;BME280;41294;42.666;23.350;2023-02-02T03:37:45;95038.50;;;4.67;66.66
55424;BME280;41294;42.666;23.350;2023-02-02T03:40:11;95039.28;;;4.64;67.14
55424;BME280;41294;42.666;23.350;2023-02-02T03:42:37;95041.28;;;4.56;67.51
55424;BME280;41294;42.666;23.350;2023-02-02T03:45:02;95040.19;;;4.54;68.25
55424;BME280;41294;42.666;23.350;2023-02-02T03:47:28;95043.69;;;4.44;68.21
55424;BME280;41294;42.666;23.350;2023-02-02T03:49:54;95045.22;;;4.41;68.72
55424;BME280;41294;42.666;23.350;2023-02-02T03:52:19;95043.00;;;4.40;68.69
55424;BME280;41294;42.666;23.350;2023-02-02T03:54:45;95039.66;;;4.39;68.64
55424;BME280;41294;42.666;23.350;2023-02-02T03:57:10;95059.88;;;4.32;69.50
55424;BME280;41294;42.666;23.350;2023-02-02T03:59:35;95052.41;;;4.34;69.81
55424;BME280;41294;42.666;23.350;2023-02-02T04:02:01;95056.31;;;4.19;70.39
55424;BME280;41294;42.666;23.350;2023-02-02T04:04:26;95056.78;;;4.14;71.10
55424;BME280;41294;42.666;23.350;2023-02-02T04:06:52;95052.09;;;4.02;71.76
55424;BME280;41294;42.666;23.350;2023-02-02T04:09:17;95059.38;;;4.14;71.79
55424;BME280;41294;42.666;23.350;2023-02-02T04:11:42;95059.94;;;3.99;72.39
55424;BME280;41294;42.666;23.350;2023-02-02T04:14:09;95058.81;;;4.00;72.66
55424;BME280;41294;42.666;23.350;2023-02-02T04:16:34;95054.63;;;3.79;74.10
55424;BME280;41294;42.666;23.350;2023-02-02T04:19:02;95058.34;;;3.78;73.89
55424;BME280;41294;42.666;23.350;2023-02-02T04:21:28;95072.44;;;3.81;74.10
55424;BME280;41294;42.666;23.350;2023-02-02T04:23:53;95067.69;;;3.76;74.15
55424;BME280;41294;42.666;23.350;2023-02-02T04:26:18;95063.69;;;3.68;74.67
55424;BME280;41294;42.666;23.350;2023-02-02T04:28:44;95062.94;;;3.67;74.99
55424;BME280;41294;42.666;23.350;2023-02-02T04:31:09;95071.16;;;3.66;74.88
55424;BME280;41294;42.666;23.350;2023-02-02T04:33:35;95060.69;;;3.69;74.41
55424;BME280;41294;42.666;23.350;2023-02-02T04:36:01;95065.16;;;3.69;74.27
55424;BME280;41294;42.666;23.350;2023-02-02T04:38:26;95059.97;;;3.65;74.17
55424;BME280;41294;42.666;23.350;2023-02-02T04:40:52;95052.56;;;3.64;74.28
55424;BME280;41294;42.666;23.350;2023-02-02T04:43:17;95048.97;;;3.54;74.75
55424;BME280;41294;42.666;23.350;2023-02-02T04:45:43;95067.47;;;3.63;74.65
55424;BME280;41294;42.666;23.350;2023-02-02T04:48:09;95077.88;;;3.60;74.50
55424;BME280;41294;42.666;23.350;2023-02-02T04:50:34;95076.53;;;3.48;75.17
55424;BME280;41294;42.666;23.350;2023-02-02T04:53:00;95070.91;;;3.53;74.91
55424;BME280;41294;42.666;23.350;2023-02-02T04:55:25;95076.53;;;3.48;74.77
55424;BME280;41294;42.666;23.350;2023-02-02T04:57:50;95065.72;;;3.53;74.84
55424;BME280;41294;42.666;23.350;2023-02-02T05:00:16;95072.84;;;3.46;75.16
55424;BME280;41294;42.666;23.350;2023-02-02T05:02:42;95071.06;;;3.39;75.61
55424;BME280;41294;42.666;23.350;2023-02-02T05:05:10;95077.25;;;3.52;74.56
55424;BME280;41294;42.666;23.350;2023-02-02T05:07:36;95075.28;;;3.26;75.72
55424;BME280;41294;42.666;23.350;2023-02-02T05:10:04;95075.56;;;3.35;75.56
55424;BME280;41294;42.666;23.350;2023-02-02T05:12:30;95078.09;;;3.42;75.20
55424;BME280;41294;42.666;23.350;2023-02-02T05:14:55;95074.25;;;3.54;74.59
55424;BME280;41294;42.666;23.350;2023-02-02T05:17:21;95061.84;;;3.31;74.80
55424;BME280;41294;42.666;23.350;2023-02-02T05:19:46;95068.53;;;3.32;74.76
55424;BME280;41294;42.666;23.350;2023-02-02T05:22:11;95060.72;;;3.32;74.60
55424;BME280;41294;42.666;23.350;2023-02-02T05:24:37;95066.28;;;3.34;74.55
55424;BME280;41294;42.666;23.350;2023-02-02T05:27:02;95061.44;;;3.36;74.49
55424;BME280;41294;42.666;23.350;2023-02-02T05:29:29;95061.41;;;3.40;74.70
55424;BME280;41294;42.666;23.350;2023-02-02T05:31:55;95064.72;;;3.40;74.46
55424;BME280;41294;42.666;23.350;2023-02-02T05:34:20;95070.84;;;3.23;74.75
55424;BME280;41294;42.666;23.350;2023-02-02T05:36:46;95066.38;;;3.27;74.56
55424;BME280;41294;42.666;23.350;2023-02-02T05:39:12;95073.44;;;3.23;75.21
55424;BME280;41294;42.666;23.350;2023-02-02T05:41:37;95073.84;;;3.22;75.38
55424;BME280;41294;42.666;23.350;2023-02-02T05:44:03;95085.47;;;3.11;75.72
55424;BME280;41294;42.666;23.350;2023-02-02T05:46:29;95074.56;;;3.22;75.96
55424;BME280;41294;42.666;23.350;2023-02-02T05:48:55;95088.00;;;3.18;75.85
55424;BME280;41294;42.666;23.350;2023-02-02T05:51:27;95082.03;;;3.21;75.97
55424;BME280;41294;42.666;23.350;2023-02-02T05:53:53;95087.34;;;3.07;76.52
55424;BME280;41294;42.666;23.350;2023-02-02T05:56:18;95087.22;;;3.24;75.67
55424;BME280;41294;42.666;23.350;2023-02-02T05:58:44;95100.69;;;3.12;75.90
55424;BME280;41294;42.666;23.350;2023-02-02T06:01:11;95092.88;;;3.12;76.02
55424;BME280;41294;42.666;23.350;2023-02-02T06:03:37;95095.44;;;3.16;75.86
55424;BME280;41294;42.666;23.350;2023-02-02T06:06:02;95087.28;;;3.14;76.13
55424;BME280;41294;42.666;23.350;2023-02-02T06:08:28;95101.38;;;3.20;76.36
55424;BME280;41294;42.666;23.350;2023-02-02T06:10:53;95091.59;;;3.30;75.87
55424;BME280;41294;42.666;23.350;2023-02-02T06:13:19;95098.59;;;3.37;75.88
55424;BME280;41294;42.666;23.350;2023-02-02T06:15:45;95089.22;;;3.43;75.43
55424;BME280;41294;42.666;23.350;2023-02-02T06:18:10;95088.09;;;3.77;74.09
55424;BME280;41294;42.666;23.350;2023-02-02T06:20:35;95090.16;;;4.49;71.89
55424;BME280;41294;42.666;23.350;2023-02-02T06:23:01;95101.25;;;5.02;69.13
55424;BME280;41294;42.666;23.350;2023-02-02T06:25:27;95104.94;;;5.27;67.93
55424;BME280;41294;42.666;23.350;2023-02-02T06:27:59;95102.97;;;5.54;66.41
55424;BME280;41294;42.666;23.350;2023-02-02T06:30:26;95120.28;;;5.22;67.61
55424;BME280;41294;42.666;23.350;2023-02-02T06:32:52;95129.91;;;4.79;68.43
55424;BME280;41294;42.666;23.350;2023-02-02T06:35:17;95123.63;;;4.24;69.92
55424;BME280;41294;42.666;23.350;2023-02-02T06:37:43;95122.75;;;4.34;70.95
55424;BME280;41294;42.666;23.350;2023-02-02T06:40:09;95123.31;;;4.18;71.29
55424;BME280;41294;42.666;23.350;2023-02-02T06:42:35;95136.25;;;3.22;75.78
55424;BME280;41294;42.666;23.350;2023-02-02T06:45:01;95142.06;;;2.93;76.92
55424;BME280;41294;42.666;23.350;2023-02-02T06:47:27;95133.88;;;2.94;78.26
55424;BME280;41294;42.666;23.350;2023-02-02T06:49:52;95128.97;;;3.07;77.31
55424;BME280;41294;42.666;23.350;2023-02-02T06:52:18;95118.03;;;3.25;76.47
55424;BME280;41294;42.666;23.350;2023-02-02T06:54:44;95136.59;;;3.27;76.86
55424;BME280;41294;42.666;23.350;2023-02-02T06:57:09;95133.59;;;3.29;75.97
55424;BME280;41294;42.666;23.350;2023-02-02T06:59:34;95137.31;;;2.84;77.90
55424;BME280;41294;42.666;23.350;2023-02-02T07:02:00;95141.03;;;2.83;78.73
55424;BME280;41294;42.666;23.350;2023-02-02T07:04:25;95139.44;;;2.96;77.76
55424;BME280;41294;42.666;23.350;2023-02-02T07:06:50;95150.69;;;2.83;78.95
55424;BME280;41294;42.666;23.350;2023-02-02T07:09:16;95144.03;;;3.25;77.58
55424;BME280;41294;42.666;23.350;2023-02-02T07:11:41;95159.78;;;3.05;77.22
55424;BME280;41294;42.666;23.350;2023-02-02T07:14:07;95144.63;;;3.40;76.43
55424;BME280;41294;42.666;23.350;2023-02-02T07:16:33;95134.81;;;3.18;77.09
55424;BME280;41294;42.666;23.350;2023-02-02T07:18:59;95135.09;;;2.83;78.64
55424;BME280;41294;42.666;23.350;2023-02-02T07:21:25;95145.72;;;2.99;78.73
55424;BME280;41294;42.666;23.350;2023-02-02T07:23:53;95145.44;;;2.90;79.15
55424;BME280;41294;42.666;23.350;2023-02-02T07:26:19;95151.38;;;2.87;79.39
55424;BME280;41294;42.666;23.350;2023-02-02T07:28:44;95158.53;;;2.76;80.21
55424;BME280;41294;42.666;23.350;2023-02-02T07:31:22;95152.47;;;2.93;79.41
55424;BME280;41294;42.666;23.350;2023-02-02T07:33:48;95150.50;;;3.04;78.88
55424;BME280;41294;42.666;23.350;2023-02-02T07:36:17;95163.50;;;3.47;77.51
55424;BME280;41294;42.666;23.350;2023-02-02T07:38:47;95167.59;;;3.85;75.99
55424;BME280;41294;42.666;23.350;2023-02-02T07:41:14;95165.59;;;3.22;78.50
55424;BME280;41294;42.666;23.350;2023-02-02T07:43:40;95162.06;;;3.46;77.69
55424;BME280;41294;42.666;23.350;2023-02-02T07:46:06;95159.28;;;3.97;76.36
55424;BME280;41294;42.666;23.350;2023-02-02T07:48:34;95148.91;;;4.23;74.31
55424;BME280;41294;42.666;23.350;2023-02-02T07:51:02;95146.34;;;4.20;73.88
55424;BME280;41294;42.666;23.350;2023-02-02T07:53:28;95143.03;;;4.46;73.71
55424;BME280;41294;42.666;23.350;2023-02-02T07:56:14;95120.03;;;4.93;71.05
55424;BME280;41294;42.666;23.350;2023-02-02T07:58:40;95119.09;;;5.68;68.84
55424;BME280;41294;42.666;23.350;2023-02-02T08:01:07;95114.34;;;7.36;64.47
55424;BME280;41294;42.666;23.350;2023-02-02T08:03:34;95115.31;;;7.42;61.85
55424;BME280;41294;42.666;23.350;2023-02-02T08:06:00;95101.94;;;7.09;61.66
55424;BME280;41294;42.666;23.350;2023-02-02T08:08:32;95106.41;;;7.24;62.18
55424;BME280;41294;42.666;23.350;2023-02-02T08:10:57;95106.47;;;8.21;57.93
55424;BME280;41294;42.666;23.350;2023-02-02T08:13:23;95110.34;;;8.17;57.47
55424;BME280;41294;42.666;23.350;2023-02-02T08:15:48;95102.13;;;7.74;58.61
55424;BME280;41294;42.666;23.350;2023-02-02T08:18:13;95101.50;;;7.70;59.88
55424;BME280;41294;42.666;23.350;2023-02-02T08:20:39;95102.66;;;7.25;60.20
55424;BME280;41294;42.666;23.350;2023-02-02T08:23:04;95097.28;;;6.53;63.96
55424;BME280;41294;42.666;23.350;2023-02-02T08:25:33;95108.34;;;6.05;65.97
55424;BME280;41294;42.666;23.350;2023-02-02T08:27:58;95097.94;;;5.44;68.75
55424;BME280;41294;42.666;23.350;2023-02-02T08:30:25;95086.06;;;5.81;67.54
55424;BME280;41294;42.666;23.350;2023-02-02T08:32:51;95087.16;;;6.19;67.05
55424;BME280;41294;42.666;23.350;2023-02-02T08:35:16;95076.94;;;6.92;63.76
55424;BME280;41294;42.666;23.350;2023-02-02T08:37:43;95078.00;;;6.94;62.47
55424;BME280;41294;42.666;23.350;2023-02-02T08:40:09;95078.28;;;7.28;61.84
55424;BME280;41294;42.666;23.350;2023-02-02T08:42:34;95069.69;;;7.56;59.34
55424;BME280;41294;42.666;23.350;2023-02-02T08:44:59;95077.72;;;7.77;59.32
55424;BME280;41294;42.666;23.350;2023-02-02T08:47:28;95071.63;;;7.68;57.77
55424;BME280;41294;42.666;23.350;2023-02-02T08:49:54;95063.47;;;8.19;57.09
55424;BME280;41294;42.666;23.350;2023-02-02T08:52:19;95067.69;;;8.54;55.89
55424;BME280;41294;42.666;23.350;2023-02-02T08:54:44;95051.66;;;9.10;54.77
55424;BME280;41294;42.666;23.350;2023-02-02T08:57:10;95055.41;;;8.63;53.44
55424;BME280;41294;42.666;23.350;2023-02-02T08:59:35;95051.44;;;7.81;55.81
55424;BME280;41294;42.666;23.350;2023-02-02T09:02:00;95058.84;;;7.70;56.59
55424;BME280;41294;42.666;23.350;2023-02-02T09:04:26;95056.66;;;7.40;56.94
55424;BME280;41294;42.666;23.350;2023-02-02T09:06:51;95062.25;;;7.26;57.68
55424;BME280;41294;42.666;23.350;2023-02-02T09:09:18;95064.53;;;7.24;57.45
55424;BME280;41294;42.666;23.350;2023-02-02T09:11:44;95066.28;;;7.43;58.13
55424;BME280;41294;42.666;23.350;2023-02-02T09:14:11;95063.59;;;6.54;62.32
55424;BME280;41294;42.666;23.350;2023-02-02T09:16:37;95057.31;;;6.52;62.82
55424;BME280;41294;42.666;23.350;2023-02-02T09:19:03;95063.88;;;6.09;64.41
55424;BME280;41294;42.666;23.350;2023-02-02T09:21:28;95054.91;;;5.90;65.78
55424;BME280;41294;42.666;23.350;2023-02-02T09:23:54;95052.28;;;6.10;66.22
55424;BME280;41294;42.666;23.350;2023-02-02T09:26:24;95052.09;;;6.01;66.67
55424;BME280;41294;42.666;23.350;2023-02-02T09:28:54;95044.59;;;6.19;66.01
55424;BME280;41294;42.666;23.350;2023-02-02T09:31:20;95057.13;;;6.59;64.24
55424;BME280;41294;42.666;23.350;2023-02-02T09:33:46;95054.06;;;7.24;62.37
55424;BME280;41294;42.666;23.350;2023-02-02T09:36:14;95043.88;;;7.14;61.54
55424;BME280;41294;42.666;23.350;2023-02-02T09:38:41;95048.03;;;7.11;61.96
55424;BME280;41294;42.666;23.350;2023-02-02T09:52:28;95037.78;;;7.73;58.98
55424;BME280;41294;42.666;23.350;2023-02-02T09:55:35;95026.97;;;8.24;56.93
55424;BME280;41294;42.666;23.350;2023-02-02T10:01:01;95008.00;;;8.45;54.99
55424;BME280;41294;42.666;23.350;2023-02-02T10:03:36;95008.72;;;9.38;51.65
55424;BME280;41294;42.666;23.350;2023-02-02T10:06:13;95022.78;;;10.17;50.15
55424;BME280;41294;42.666;23.350;2023-02-02T10:08:47;95013.94;;;9.81;52.62
55424;BME280;41294;42.666;23.350;2023-02-02T10:11:46;95013.25;;;9.89;53.55
55424;BME280;41294;42.666;23.350;2023-02-02T10:16:45;94980.22;;;9.88;51.43
55424;BME280;41294;42.666;23.350;2023-02-02T10:19:13;94989.03;;;10.73;50.22
55424;BME280;41294;42.666;23.350;2023-02-02T10:21:46;94994.94;;;11.13;48.80
55424;BME280;41294;42.666;23.350;2023-02-02T10:24:19;94982.34;;;11.17;48.55
55424;BME280;41294;42.666;23.350;2023-02-02T10:26:52;94983.22;;;11.23;48.01
55424;BME280;41294;42.666;23.350;2023-02-02T10:43:12;94944.25;;;12.92;39.94
55424;BME280;41294;42.666;23.350;2023-02-02T10:49:38;94937.97;;;13.41;39.47
55424;BME280;41294;42.666;23.350;2023-02-02T10:54:59;94916.09;;;12.89;39.55
55424;BME280;41294;42.666;23.350;2023-02-02T11:02:49;94890.75;;;13.63;37.60
55424;BME280;41294;42.666;23.350;2023-02-02T11:05:19;94891.72;;;13.22;38.19
55424;BME280;41294;42.666;23.350;2023-02-02T11:08:19;94892.03;;;13.53;37.51
55424;BME280;41294;42.666;23.350;2023-02-02T11:10:49;94890.56;;;13.52;37.15
55424;BME280;41294;42.666;23.350;2023-02-02T11:13:26;94890.34;;;13.99;36.18
55424;BME280;41294;42.666;23.350;2023-02-02T11:18:41;94889.00;;;14.09;36.42
55424;BME280;41294;42.666;23.350;2023-02-02T11:24:04;94874.03;;;13.72;37.02
55424;BME280;41294;42.666;23.350;2023-02-02T11:26:52;94860.63;;;13.75;36.53
55424;BME280;41294;42.666;23.350;2023-02-02T11:29:24;94857.75;;;13.93;36.67
55424;BME280;41294;42.666;23.350;2023-02-02T11:31:52;94856.50;;;14.23;36.17
55424;BME280;41294;42.666;23.350;2023-02-02T11:34:20;94854.06;;;14.05;35.77
55424;BME280;41294;42.666;23.350;2023-02-02T11:37:03;94844.53;;;13.79;36.15
55424;BME280;41294;42.666;23.350;2023-02-02T11:39:34;94844.09;;;13.80;36.41
55424;BME280;41294;42.666;23.350;2023-02-02T11:42:22;94831.63;;;13.52;36.31
55424;BME280;41294;42.666;23.350;2023-02-02T11:44:52;94832.75;;;13.60;36.84
55424;BME280;41294;42.666;23.350;2023-02-02T11:47:26;94829.53;;;13.70;36.60
55424;BME280;41294;42.666;23.350;2023-02-02T11:49:53;94836.78;;;13.26;36.69
55424;BME280;41294;42.666;23.350;2023-02-02T11:52:21;94837.88;;;13.34;37.06
55424;BME280;41294;42.666;23.350;2023-02-02T11:54:54;94834.66;;;13.45;37.02
55424;BME280;41294;42.666;23.350;2023-02-02T11:57:23;94816.75;;;13.69;36.62
55424;BME280;41294;42.666;23.350;2023-02-02T11:59:51;94827.63;;;13.56;36.65
55424;BME280;41294;42.666;23.350;2023-02-02T12:02:31;94816.69;;;13.49;36.69
55424;BME280;41294;42.666;23.350;2023-02-02T12:07:34;94821.97;;;13.63;37.46
55424;BME280;41294;42.666;23.350;2023-02-02T12:10:24;94818.06;;;13.93;36.96
55424;BME280;41294;42.666;23.350;2023-02-02T12:13:14;94821.53;;;13.99;35.96
55424;BME280;41294;42.666;23.350;2023-02-02T12:21:07;94813.25;;;13.14;37.36
55424;BME280;41294;42.666;23.350;2023-02-02T12:34:15;94824.66;;;12.30;39.12
55424;BME280;41294;42.666;23.350;2023-02-02T12:45:23;94824.22;;;11.35;38.78
55424;BME280;41294;42.666;23.350;2023-02-02T12:56:28;94824.34;;;10.90;41.44
55424;BME280;41294;42.666;23.350;2023-02-02T13:09:57;94821.13;;;10.77;40.86
55424;BME280;41294;42.666;23.350;2023-02-02T13:12:25;94825.22;;;10.78;41.01
55424;BME280;41294;42.666;23.350;2023-02-02T13:15:07;94818.94;;;10.66;41.61
55424;BME280;41294;42.666;23.350;2023-02-02T13:20:54;94830.94;;;10.67;41.40
55424;BME280;41294;42.666;23.350;2023-02-02T13:23:07;94829.63;;;10.63;41.92
55424;BME280;41294;42.666;23.350;2023-02-02T13:25:46;94825.53;;;10.53;41.82
55424;BME280;41294;42.666;23.350;2023-02-02T13:28:31;94819.66;;;10.49;41.78
55424;BME280;41294;42.666;23.350;2023-02-02T13:31:00;94815.44;;;10.61;42.38
55424;BME280;41294;42.666;23.350;2023-02-02T13:33:31;94810.91;;;10.61;42.46
55424;BME280;41294;42.666;23.350;2023-02-02T13:36:02;94813.84;;;10.63;42.10
55424;BME280;41294;42.666;23.350;2023-02-02T13:38:30;94814.84;;;10.74;42.49
55424;BME280;41294;42.666;23.350;2023-02-02T13:41:00;94811.19;;;10.72;41.98
55424;BME280;41294;42.666;23.350;2023-02-02T13:51:19;94818.47;;;10.23;41.78
55424;BME280;41294;42.666;23.350;2023-02-02T14:01:50;94829.75;;;10.24;42.95
55424;BME280;41294;42.666;23.350;2023-02-02T14:04:28;94816.00;;;10.11;44.00
55424;BME280;41294;42.666;23.350;2023-02-02T14:07:03;94803.88;;;10.13;44.51
55424;BME280;41294;42.666;23.350;2023-02-02T14:09:33;94814.41;;;10.13;44.67
55424;BME280;41294;42.666;23.350;2023-02-02T14:12:08;94823.47;;;10.12;45.62
55424;BME280;41294;42.666;23.350;2023-02-02T14:14:37;94806.00;;;9.97;47.78
55424;BME280;41294;42.666;23.350;2023-02-02T14:17:06;94809.38;;;9.97;49.41
55424;BME280;41294;42.666;23.350;2023-02-02T14:22:01;94810.41;;;9.91;51.24
55424;BME280;41294;42.666;23.350;2023-02-02T14:26:57;94809.59;;;9.73;50.84
55424;BME280;41294;42.666;23.350;2023-02-02T14:34:42;94833.56;;;9.35;52.66
55424;BME280;41294;42.666;23.350;2023-02-02T14:45:36;94889.06;;;8.61;57.97
55424;BME280;41294;42.666;23.350;2023-02-02T14:53:30;94957.44;;;7.95;72.19
55424;BME280;41294;42.666;23.350;2023-02-02T14:56:09;94977.00;;;7.25;78.91
55424;BME280;41294;42.666;23.350;2023-02-02T14:58:44;94989.47;;;6.93;82.59
55424;BME280;41294;42.666;23.350;2023-02-02T15:22:36;95069.31;;;5.17;95.98
55424;BME280;41294;42.666;23.350;2023-02-02T15:25:17;95085.44;;;5.12;96.47
55424;BME280;41294;42.666;23.350;2023-02-02T15:27:49;95088.19;;;5.25;95.64
55424;BME280;41294;42.666;23.350;2023-02-02T15:30:16;95097.28;;;5.17;95.40
55424;BME280;41294;42.666;23.350;2023-02-02T15:32:42;95080.81;;;5.20;96.09
55424;BME280;41294;42.666;23.350;2023-02-02T15:35:29;95095.59;;;5.07;96.58
55424;BME280;41294;42.666;23.350;2023-02-02T15:38:06;95101.88;;;5.09;96.38
55424;BME280;41294;42.666;23.350;2023-02-02T15:40:37;95094.31;;;4.92;97.66
55424;BME280;41294;42.666;23.350;2023-02-02T15:43:05;95086.66;;;4.82;98.34
55424;BME280;41294;42.666;23.350;2023-02-02T15:45:53;95101.53;;;4.85;97.97
55424;BME280;41294;42.666;23.350;2023-02-02T15:48:25;95100.16;;;4.77;97.93
55424;BME280;41294;42.666;23.350;2023-02-02T15:50:55;95109.13;;;4.76;98.87
55424;BME280;41294;42.666;23.350;2023-02-02T15:53:25;95118.22;;;4.64;98.42
55424;BME280;41294;42.666;23.350;2023-02-02T15:55:52;95113.81;;;4.61;99.36
55424;BME280;41294;42.666;23.350;2023-02-02T15:58:29;95114.72;;;4.48;99.54
55424;BME280;41294;42.666;23.350;2023-02-02T16:01:00;95126.03;;;4.38;99.97
55424;BME280;41294;42.666;23.350;2023-02-02T16:03:45;95130.81;;;4.43;99.17
55424;BME280;41294;42.666;23.350;2023-02-02T16:06:14;95139.66;;;4.49;99.02
55424;BME280;41294;42.666;23.350;2023-02-02T16:08:40;95134.41;;;4.52;98.54